sensor_id;sensor_type;location;lat;lon;timestamp;P1;durP1;ratioP1;P2;durP2;ratioP2
76292;SDS011;65101;51.140;4.088;2022-12-07T00:00:53;3.63;;;2.42;;
76292;SDS011;65101;51.140;4.088;2022-12-07T00:03:19;4.13;;;2.28;;
76292;SDS011;65101;51.140;4.088;2022-12-07T00:05:45;3.58;;;2.50;;
76292;SDS011;65101;51.140;4.088;2022-12-07T00:08:10;3.63;;;2.28;;
76292;SDS011;65101;51.140;4.088;2022-12-07T00:10:36;3.40;;;2.33;;
76292;SDS011;65101;51.140;4.088;2022-12-07T00:13:02;4.10;;;2.50;;
76292;SDS011;65101;51.140;4.088;2022-12-07T00:15:27;3.63;;;2.30;;
76292;SDS011;65101;51.140;4.088;2022-12-07T00:17:53;3.53;;;2.72;;
76292;SDS011;65101;51.140;4.088;2022-12-07T00:20:19;3.78;;;2.42;;
76292;SDS011;65101;51.140;4.088;2022-12-07T00:22:44;3.45;;;2.53;;
76292;SDS011;65101;51.140;4.088;2022-12-07T00:25:10;5.00;;;3.08;;
76292;SDS011;65101;51.140;4.088;2022-12-07T00:27:35;5.60;;;2.40;;
76292;SDS011;65101;51.140;4.088;2022-12-07T00:30:01;3.80;;;2.70;;
76292;SDS011;65101;51.140;4.088;2022-12-07T00:32:27;4.00;;;2.92;;
76292;SDS011;65101;51.140;4.088;2022-12-07T00:34:52;3.47;;;2.45;;
76292;SDS011;65101;51.140;4.088;2022-12-07T00:37:18;7.00;;;2.55;;
76292;SDS011;65101;51.140;4.088;2022-12-07T00:39:45;3.92;;;2.50;;
76292;SDS011;65101;51.140;4.088;2022-12-07T00:42:11;3.28;;;2.20;;
76292;SDS011;65101;51.140;4.088;2022-12-07T00:44:36;3.38;;;2.13;;
76292;SDS011;65101;51.140;4.088;2022-12-07T00:47:02;2.88;;;2.10;;
76292;SDS011;65101;51.140;4.088;2022-12-07T00:49:27;3.97;;;2.83;;
76292;SDS011;65101;51.140;4.088;2022-12-07T00:51:53;4.00;;;2.75;;
76292;SDS011;65101;51.140;4.088;2022-12-07T00:54:19;5.63;;;2.60;;
76292;SDS011;65101;51.140;4.088;2022-12-07T00:56:44;3.70;;;2.53;;
76292;SDS011;65101;51.140;4.088;2022-12-07T00:59:11;3.15;;;2.40;;
76292;SDS011;65101;51.140;4.088;2022-12-07T01:04:05;5.18;;;2.55;;
76292;SDS011;65101;51.140;4.088;2022-12-07T01:06:31;3.97;;;2.45;;
76292;SDS011;65101;51.140;4.088;2022-12-07T01:08:57;3.70;;;2.22;;
76292;SDS011;65101;51.140;4.088;2022-12-07T01:11:24;4.95;;;2.90;;
76292;SDS011;65101;51.140;4.088;2022-12-07T01:13:53;3.40;;;2.33;;
76292;SDS011;65101;51.140;4.088;2022-12-07T01:16:21;2.80;;;2.13;;
76292;SDS011;65101;51.140;4.088;2022-12-07T01:18:48;4.20;;;2.17;;
76292;SDS011;65101;51.140;4.088;2022-12-07T01:21:17;4.32;;;2.42;;
76292;SDS011;65101;51.140;4.088;2022-12-07T01:23:54;5.05;;;2.15;;
76292;SDS011;65101;51.140;4.088;2022-12-07T01:26:23;4.40;;;2.03;;
76292;SDS011;65101;51.140;4.088;2022-12-07T01:28:50;3.85;;;2.45;;
76292;SDS011;65101;51.140;4.088;2022-12-07T01:31:17;3.35;;;2.13;;
76292;SDS011;65101;51.140;4.088;2022-12-07T01:33:47;3.22;;;2.35;;
76292;SDS011;65101;51.140;4.088;2022-12-07T01:36:21;3.40;;;2.35;;
76292;SDS011;65101;51.140;4.088;2022-12-07T01:38:50;4.28;;;2.17;;
76292;SDS011;65101;51.140;4.088;2022-12-07T01:41:17;3.42;;;2.45;;
76292;SDS011;65101;51.140;4.088;2022-12-07T01:49:21;2.85;;;2.10;;
76292;SDS011;65101;51.140;4.088;2022-12-07T01:51:52;3.78;;;2.10;;
76292;SDS011;65101;51.140;4.088;2022-12-07T01:54:40;3.83;;;2.45;;
76292;SDS011;65101;51.140;4.088;2022-12-07T01:57:07;3.67;;;2.50;;
76292;SDS011;65101;51.140;4.088;2022-12-07T01:59:34;2.92;;;2.20;;
76292;SDS011;65101;51.140;4.088;2022-12-07T02:02:00;3.72;;;2.47;;
76292;SDS011;65101;51.140;4.088;2022-12-07T02:04:29;5.35;;;2.42;;
76292;SDS011;65101;51.140;4.088;2022-12-07T02:06:55;3.17;;;2.25;;
76292;SDS011;65101;51.140;4.088;2022-12-07T02:09:22;2.85;;;2.10;;
76292;SDS011;65101;51.140;4.088;2022-12-07T02:11:48;4.63;;;2.65;;
76292;SDS011;65101;51.140;4.088;2022-12-07T02:14:14;3.38;;;2.20;;
76292;SDS011;65101;51.140;4.088;2022-12-07T02:27:46;5.53;;;2.55;;
76292;SDS011;65101;51.140;4.088;2022-12-07T02:30:18;3.50;;;2.20;;
76292;SDS011;65101;51.140;4.088;2022-12-07T02:35:39;2.80;;;2.40;;
76292;SDS011;65101;51.140;4.088;2022-12-07T02:38:19;3.27;;;2.00;;
76292;SDS011;65101;51.140;4.088;2022-12-07T02:41:04;4.25;;;2.58;;
76292;SDS011;65101;51.140;4.088;2022-12-07T02:43:35;4.50;;;2.42;;
76292;SDS011;65101;51.140;4.088;2022-12-07T02:46:16;3.17;;;1.88;;
76292;SDS011;65101;51.140;4.088;2022-12-07T02:48:46;3.53;;;2.40;;
76292;SDS011;65101;51.140;4.088;2022-12-07T02:51:12;3.05;;;2.17;;
76292;SDS011;65101;51.140;4.088;2022-12-07T02:53:42;3.45;;;2.03;;
76292;SDS011;65101;51.140;4.088;2022-12-07T03:04:45;3.08;;;1.70;;
76292;SDS011;65101;51.140;4.088;2022-12-07T03:12:37;2.75;;;2.00;;
76292;SDS011;65101;51.140;4.088;2022-12-07T03:15:14;3.42;;;2.13;;
76292;SDS011;65101;51.140;4.088;2022-12-07T03:18:09;3.70;;;2.03;;
76292;SDS011;65101;51.140;4.088;2022-12-07T03:20:37;3.53;;;1.95;;
76292;SDS011;65101;51.140;4.088;2022-12-07T03:23:06;2.70;;;1.67;;
76292;SDS011;65101;51.140;4.088;2022-12-07T03:25:35;3.03;;;1.83;;
76292;SDS011;65101;51.140;4.088;2022-12-07T03:28:10;3.25;;;1.92;;
76292;SDS011;65101;51.140;4.088;2022-12-07T03:30:57;2.85;;;1.90;;
76292;SDS011;65101;51.140;4.088;2022-12-07T03:34:07;3.83;;;2.17;;
76292;SDS011;65101;51.140;4.088;2022-12-07T03:37:10;2.80;;;1.80;;
76292;SDS011;65101;51.140;4.088;2022-12-07T03:39:22;4.85;;;2.10;;
76292;SDS011;65101;51.140;4.088;2022-12-07T03:41:49;3.10;;;1.95;;
76292;SDS011;65101;51.140;4.088;2022-12-07T03:44:16;3.90;;;2.00;;
76292;SDS011;65101;51.140;4.088;2022-12-07T03:46:44;3.05;;;1.70;;
76292;SDS011;65101;51.140;4.088;2022-12-07T03:49:32;2.42;;;1.50;;
76292;SDS011;65101;51.140;4.088;2022-12-07T03:52:17;4.85;;;2.20;;
76292;SDS011;65101;51.140;4.088;2022-12-07T03:57:28;2.92;;;1.88;;
76292;SDS011;65101;51.140;4.088;2022-12-07T03:59:55;3.45;;;1.92;;
76292;SDS011;65101;51.140;4.088;2022-12-07T04:02:22;3.95;;;2.05;;
76292;SDS011;65101;51.140;4.088;2022-12-07T04:04:50;4.13;;;2.15;;
76292;SDS011;65101;51.140;4.088;2022-12-07T04:07:15;2.92;;;2.03;;
76292;SDS011;65101;51.140;4.088;2022-12-07T04:09:41;3.25;;;1.77;;
76292;SDS011;65101;51.140;4.088;2022-12-07T04:12:07;3.22;;;2.00;;
76292;SDS011;65101;51.140;4.088;2022-12-07T04:14:32;2.90;;;1.60;;
76292;SDS011;65101;51.140;4.088;2022-12-07T04:16:58;3.00;;;1.70;;
76292;SDS011;65101;51.140;4.088;2022-12-07T04:19:26;3.75;;;2.08;;
76292;SDS011;65101;51.140;4.088;2022-12-07T04:21:53;2.58;;;1.98;;
76292;SDS011;65101;51.140;4.088;2022-12-07T04:24:19;5.45;;;2.15;;
76292;SDS011;65101;51.140;4.088;2022-12-07T04:26:45;3.42;;;1.83;;
76292;SDS011;65101;51.140;4.088;2022-12-07T04:29:12;3.03;;;2.00;;
76292;SDS011;65101;51.140;4.088;2022-12-07T04:31:38;3.75;;;2.20;;
76292;SDS011;65101;51.140;4.088;2022-12-07T04:34:04;3.25;;;1.67;;
76292;SDS011;65101;51.140;4.088;2022-12-07T04:36:31;2.17;;;1.60;;
76292;SDS011;65101;51.140;4.088;2022-12-07T04:38:57;3.03;;;1.85;;
76292;SDS011;65101;51.140;4.088;2022-12-07T04:41:23;2.72;;;1.48;;
76292;SDS011;65101;51.140;4.088;2022-12-07T04:43:56;2.80;;;1.70;;
76292;SDS011;65101;51.140;4.088;2022-12-07T04:46:23;3.55;;;1.98;;
76292;SDS011;65101;51.140;4.088;2022-12-07T04:48:50;3.92;;;2.03;;
76292;SDS011;65101;51.140;4.088;2022-12-07T04:51:18;4.07;;;2.00;;
76292;SDS011;65101;51.140;4.088;2022-12-07T04:56:11;3.10;;;2.15;;
76292;SDS011;65101;51.140;4.088;2022-12-07T04:58:37;2.65;;;1.85;;
76292;SDS011;65101;51.140;4.088;2022-12-07T05:01:02;2.83;;;1.80;;
76292;SDS011;65101;51.140;4.088;2022-12-07T05:03:28;2.78;;;1.65;;
76292;SDS011;65101;51.140;4.088;2022-12-07T05:05:54;2.72;;;1.58;;
76292;SDS011;65101;51.140;4.088;2022-12-07T05:08:19;4.00;;;2.10;;
76292;SDS011;65101;51.140;4.088;2022-12-07T05:10:45;3.00;;;1.80;;
76292;SDS011;65101;51.140;4.088;2022-12-07T05:13:10;3.13;;;2.00;;
76292;SDS011;65101;51.140;4.088;2022-12-07T05:15:36;3.28;;;2.00;;
76292;SDS011;65101;51.140;4.088;2022-12-07T05:18:02;2.55;;;1.70;;
76292;SDS011;65101;51.140;4.088;2022-12-07T05:20:28;3.83;;;2.08;;
76292;SDS011;65101;51.140;4.088;2022-12-07T05:22:54;3.25;;;1.80;;
76292;SDS011;65101;51.140;4.088;2022-12-07T05:25:19;3.03;;;1.60;;
76292;SDS011;65101;51.140;4.088;2022-12-07T05:27:45;2.60;;;1.50;;
76292;SDS011;65101;51.140;4.088;2022-12-07T05:30:11;2.75;;;1.58;;
76292;SDS011;65101;51.140;4.088;2022-12-07T05:32:37;3.75;;;1.80;;
76292;SDS011;65101;51.140;4.088;2022-12-07T05:35:03;3.00;;;1.50;;
76292;SDS011;65101;51.140;4.088;2022-12-07T05:37:29;4.10;;;1.60;;
76292;SDS011;65101;51.140;4.088;2022-12-07T05:39:54;3.05;;;1.27;;
76292;SDS011;65101;51.140;4.088;2022-12-07T05:42:20;3.58;;;2.03;;
76292;SDS011;65101;51.140;4.088;2022-12-07T05:44:45;4.25;;;1.83;;
76292;SDS011;65101;51.140;4.088;2022-12-07T05:47:12;3.28;;;1.50;;
76292;SDS011;65101;51.140;4.088;2022-12-07T05:49:39;2.53;;;1.48;;
76292;SDS011;65101;51.140;4.088;2022-12-07T05:52:04;3.75;;;2.00;;
76292;SDS011;65101;51.140;4.088;2022-12-07T05:54:30;3.90;;;1.95;;
76292;SDS011;65101;51.140;4.088;2022-12-07T05:56:56;3.05;;;1.45;;
76292;SDS011;65101;51.140;4.088;2022-12-07T05:59:22;3.22;;;1.73;;
76292;SDS011;65101;51.140;4.088;2022-12-07T06:01:58;2.03;;;1.58;;
76292;SDS011;65101;51.140;4.088;2022-12-07T06:04:26;5.65;;;1.73;;
76292;SDS011;65101;51.140;4.088;2022-12-07T06:06:53;3.22;;;1.65;;
76292;SDS011;65101;51.140;4.088;2022-12-07T06:09:19;3.22;;;1.75;;
76292;SDS011;65101;51.140;4.088;2022-12-07T06:11:46;4.20;;;1.40;;
76292;SDS011;65101;51.140;4.088;2022-12-07T06:14:30;3.33;;;1.63;;
76292;SDS011;65101;51.140;4.088;2022-12-07T06:16:56;3.83;;;1.60;;
76292;SDS011;65101;51.140;4.088;2022-12-07T06:19:22;2.72;;;1.60;;
76292;SDS011;65101;51.140;4.088;2022-12-07T06:21:48;4.25;;;1.77;;
76292;SDS011;65101;51.140;4.088;2022-12-07T06:24:14;2.90;;;1.55;;
76292;SDS011;65101;51.140;4.088;2022-12-07T06:26:41;2.88;;;1.52;;
76292;SDS011;65101;51.140;4.088;2022-12-07T06:29:06;2.88;;;1.67;;
76292;SDS011;65101;51.140;4.088;2022-12-07T06:31:33;3.35;;;1.77;;
76292;SDS011;65101;51.140;4.088;2022-12-07T06:33:59;2.65;;;1.70;;
76292;SDS011;65101;51.140;4.088;2022-12-07T06:36:26;3.05;;;1.60;;
76292;SDS011;65101;51.140;4.088;2022-12-07T06:38:51;3.08;;;1.60;;
76292;SDS011;65101;51.140;4.088;2022-12-07T06:41:19;3.63;;;1.60;;
76292;SDS011;65101;51.140;4.088;2022-12-07T06:43:44;2.60;;;1.40;;
76292;SDS011;65101;51.140;4.088;2022-12-07T06:46:10;2.53;;;1.52;;
76292;SDS011;65101;51.140;4.088;2022-12-07T06:48:35;2.97;;;1.92;;
76292;SDS011;65101;51.140;4.088;2022-12-07T06:51:01;2.65;;;1.60;;
76292;SDS011;65101;51.140;4.088;2022-12-07T06:53:27;2.30;;;1.73;;
76292;SDS011;65101;51.140;4.088;2022-12-07T06:55:52;2.90;;;1.50;;
76292;SDS011;65101;51.140;4.088;2022-12-07T06:58:18;3.92;;;1.63;;
76292;SDS011;65101;51.140;4.088;2022-12-07T07:00:44;5.20;;;1.95;;
76292;SDS011;65101;51.140;4.088;2022-12-07T07:03:10;2.70;;;1.45;;
76292;SDS011;65101;51.140;4.088;2022-12-07T07:05:36;2.92;;;1.75;;
76292;SDS011;65101;51.140;4.088;2022-12-07T07:08:02;2.80;;;1.50;;
76292;SDS011;65101;51.140;4.088;2022-12-07T07:10:28;2.65;;;1.55;;
76292;SDS011;65101;51.140;4.088;2022-12-07T07:12:54;2.08;;;1.33;;
76292;SDS011;65101;51.140;4.088;2022-12-07T07:15:20;2.58;;;1.55;;
76292;SDS011;65101;51.140;4.088;2022-12-07T07:17:45;2.88;;;1.40;;
76292;SDS011;65101;51.140;4.088;2022-12-07T07:20:11;3.58;;;1.60;;
76292;SDS011;65101;51.140;4.088;2022-12-07T07:22:37;1.90;;;1.23;;
76292;SDS011;65101;51.140;4.088;2022-12-07T07:25:03;3.72;;;1.95;;
76292;SDS011;65101;51.140;4.088;2022-12-07T07:27:29;2.00;;;1.20;;
76292;SDS011;65101;51.140;4.088;2022-12-07T07:29:54;13.68;;;2.47;;
76292;SDS011;65101;51.140;4.088;2022-12-07T07:32:20;3.75;;;1.80;;
76292;SDS011;65101;51.140;4.088;2022-12-07T07:34:47;4.38;;;2.00;;
76292;SDS011;65101;51.140;4.088;2022-12-07T07:37:12;3.28;;;1.92;;
76292;SDS011;65101;51.140;4.088;2022-12-07T07:39:39;5.18;;;3.15;;
76292;SDS011;65101;51.140;4.088;2022-12-07T07:42:04;5.63;;;3.00;;
76292;SDS011;65101;51.140;4.088;2022-12-07T07:44:30;5.20;;;3.38;;
76292;SDS011;65101;51.140;4.088;2022-12-07T07:46:56;5.13;;;2.50;;
76292;SDS011;65101;51.140;4.088;2022-12-07T07:49:21;3.17;;;2.05;;
76292;SDS011;65101;51.140;4.088;2022-12-07T07:51:47;3.40;;;1.83;;
76292;SDS011;65101;51.140;4.088;2022-12-07T07:54:13;2.88;;;1.65;;
76292;SDS011;65101;51.140;4.088;2022-12-07T07:56:38;3.53;;;1.50;;
76292;SDS011;65101;51.140;4.088;2022-12-07T07:59:04;3.30;;;1.63;;
76292;SDS011;65101;51.140;4.088;2022-12-07T08:01:29;2.50;;;1.48;;
76292;SDS011;65101;51.140;4.088;2022-12-07T08:03:55;3.00;;;1.92;;
76292;SDS011;65101;51.140;4.088;2022-12-07T08:06:21;3.03;;;1.88;;
76292;SDS011;65101;51.140;4.088;2022-12-07T08:08:46;3.22;;;1.67;;
76292;SDS011;65101;51.140;4.088;2022-12-07T08:11:12;2.90;;;1.70;;
76292;SDS011;65101;51.140;4.088;2022-12-07T08:13:37;3.38;;;1.70;;
76292;SDS011;65101;51.140;4.088;2022-12-07T08:16:04;2.88;;;1.60;;
76292;SDS011;65101;51.140;4.088;2022-12-07T08:18:34;2.80;;;1.60;;
76292;SDS011;65101;51.140;4.088;2022-12-07T08:21:02;2.70;;;1.50;;
76292;SDS011;65101;51.140;4.088;2022-12-07T08:23:28;2.92;;;1.67;;
76292;SDS011;65101;51.140;4.088;2022-12-07T08:25:53;2.60;;;1.50;;
76292;SDS011;65101;51.140;4.088;2022-12-07T08:28:19;3.83;;;1.75;;
76292;SDS011;65101;51.140;4.088;2022-12-07T08:30:45;3.22;;;1.80;;
76292;SDS011;65101;51.140;4.088;2022-12-07T08:33:10;4.05;;;1.35;;
76292;SDS011;65101;51.140;4.088;2022-12-07T08:35:36;2.78;;;1.55;;
76292;SDS011;65101;51.140;4.088;2022-12-07T08:38:02;4.13;;;1.88;;
76292;SDS011;65101;51.140;4.088;2022-12-07T08:40:28;3.75;;;1.73;;
76292;SDS011;65101;51.140;4.088;2022-12-07T08:42:54;3.35;;;1.83;;
76292;SDS011;65101;51.140;4.088;2022-12-07T08:45:20;2.53;;;1.60;;
76292;SDS011;65101;51.140;4.088;2022-12-07T08:50:18;2.65;;;1.50;;
76292;SDS011;65101;51.140;4.088;2022-12-07T08:52:44;5.70;;;1.70;;
76292;SDS011;65101;51.140;4.088;2022-12-07T08:55:15;2.70;;;1.50;;
76292;SDS011;65101;51.140;4.088;2022-12-07T08:57:41;9.23;;;1.70;;
76292;SDS011;65101;51.140;4.088;2022-12-07T09:00:07;3.17;;;1.63;;
76292;SDS011;65101;51.140;4.088;2022-12-07T09:02:34;2.65;;;1.40;;
76292;SDS011;65101;51.140;4.088;2022-12-07T09:05:00;4.40;;;1.90;;
76292;SDS011;65101;51.140;4.088;2022-12-07T09:07:25;4.20;;;2.50;;
76292;SDS011;65101;51.140;4.088;2022-12-07T09:09:52;6.50;;;1.63;;
76292;SDS011;65101;51.140;4.088;2022-12-07T09:12:17;5.00;;;2.72;;
76292;SDS011;65101;51.140;4.088;2022-12-07T09:14:43;3.30;;;1.75;;
76292;SDS011;65101;51.140;4.088;2022-12-07T09:17:09;3.30;;;1.95;;
76292;SDS011;65101;51.140;4.088;2022-12-07T09:19:36;2.83;;;1.80;;
76292;SDS011;65101;51.140;4.088;2022-12-07T09:22:03;2.67;;;1.40;;
76292;SDS011;65101;51.140;4.088;2022-12-07T09:24:30;2.90;;;1.55;;
76292;SDS011;65101;51.140;4.088;2022-12-07T09:26:56;4.80;;;1.70;;
76292;SDS011;65101;51.140;4.088;2022-12-07T09:29:22;4.40;;;1.75;;
76292;SDS011;65101;51.140;4.088;2022-12-07T09:31:48;3.35;;;1.55;;
76292;SDS011;65101;51.140;4.088;2022-12-07T09:34:14;2.95;;;1.48;;
76292;SDS011;65101;51.140;4.088;2022-12-07T09:36:39;3.10;;;1.60;;
76292;SDS011;65101;51.140;4.088;2022-12-07T09:39:05;2.15;;;1.30;;
76292;SDS011;65101;51.140;4.088;2022-12-07T09:41:31;3.00;;;1.65;;
76292;SDS011;65101;51.140;4.088;2022-12-07T09:44:04;3.30;;;1.90;;
76292;SDS011;65101;51.140;4.088;2022-12-07T09:46:42;2.70;;;1.42;;
76292;SDS011;65101;51.140;4.088;2022-12-07T09:49:20;3.60;;;1.40;;
76292;SDS011;65101;51.140;4.088;2022-12-07T09:51:57;4.70;;;1.63;;
76292;SDS011;65101;51.140;4.088;2022-12-07T09:54:44;2.15;;;1.38;;
76292;SDS011;65101;51.140;4.088;2022-12-07T09:57:12;3.10;;;1.30;;
76292;SDS011;65101;51.140;4.088;2022-12-07T09:59:38;2.58;;;1.60;;
76292;SDS011;65101;51.140;4.088;2022-12-07T10:05:00;2.80;;;1.58;;
76292;SDS011;65101;51.140;4.088;2022-12-07T10:07:29;4.30;;;1.80;;
76292;SDS011;65101;51.140;4.088;2022-12-07T10:09:55;2.83;;;1.55;;
76292;SDS011;65101;51.140;4.088;2022-12-07T10:12:20;4.20;;;1.60;;
76292;SDS011;65101;51.140;4.088;2022-12-07T10:15:04;2.17;;;1.35;;
76292;SDS011;65101;51.140;4.088;2022-12-07T10:17:32;4.55;;;1.50;;
76292;SDS011;65101;51.140;4.088;2022-12-07T10:20:45;2.92;;;1.60;;
76292;SDS011;65101;51.140;4.088;2022-12-07T10:25:28;2.60;;;1.48;;
76292;SDS011;65101;51.140;4.088;2022-12-07T10:30:28;3.28;;;1.55;;
76292;SDS011;65101;51.140;4.088;2022-12-07T10:32:54;2.47;;;1.20;;
76292;SDS011;65101;51.140;4.088;2022-12-07T10:35:22;3.63;;;1.30;;
76292;SDS011;65101;51.140;4.088;2022-12-07T10:37:48;4.70;;;1.77;;
76292;SDS011;65101;51.140;4.088;2022-12-07T10:40:24;5.70;;;1.80;;
76292;SDS011;65101;51.140;4.088;2022-12-07T10:43:15;5.18;;;1.70;;
76292;SDS011;65101;51.140;4.088;2022-12-07T10:50:54;2.47;;;1.35;;
76292;SDS011;65101;51.140;4.088;2022-12-07T11:01:57;3.83;;;1.77;;
76292;SDS011;65101;51.140;4.088;2022-12-07T11:05:02;3.13;;;1.55;;
76292;SDS011;65101;51.140;4.088;2022-12-07T11:10:41;4.30;;;1.60;;
76292;SDS011;65101;51.140;4.088;2022-12-07T11:19:02;2.58;;;1.50;;
76292;SDS011;65101;51.140;4.088;2022-12-07T11:24:17;2.95;;;1.55;;
76292;SDS011;65101;51.140;4.088;2022-12-07T11:37:19;3.20;;;1.50;;
76292;SDS011;65101;51.140;4.088;2022-12-07T11:39:51;2.58;;;1.15;;
76292;SDS011;65101;51.140;4.088;2022-12-07T11:44:55;3.80;;;1.73;;
76292;SDS011;65101;51.140;4.088;2022-12-07T11:52:49;5.20;;;1.58;;
76292;SDS011;65101;51.140;4.088;2022-12-07T11:55:29;2.13;;;1.20;;
76292;SDS011;65101;51.140;4.088;2022-12-07T11:58:04;2.00;;;1.08;;
76292;SDS011;65101;51.140;4.088;2022-12-07T12:01:01;2.25;;;1.20;;
76292;SDS011;65101;51.140;4.088;2022-12-07T12:03:41;3.00;;;1.38;;
76292;SDS011;65101;51.140;4.088;2022-12-07T12:06:12;2.83;;;1.20;;
76292;SDS011;65101;51.140;4.088;2022-12-07T12:08:50;7.38;;;1.67;;
76292;SDS011;65101;51.140;4.088;2022-12-07T12:14:30;5.55;;;1.23;;
76292;SDS011;65101;51.140;4.088;2022-12-07T12:20:24;1.92;;;0.90;;
76292;SDS011;65101;51.140;4.088;2022-12-07T12:23:09;3.70;;;1.50;;
76292;SDS011;65101;51.140;4.088;2022-12-07T12:25:41;3.15;;;1.40;;
76292;SDS011;65101;51.140;4.088;2022-12-07T12:28:29;4.30;;;1.25;;
76292;SDS011;65101;51.140;4.088;2022-12-07T12:31:07;3.90;;;1.30;;
76292;SDS011;65101;51.140;4.088;2022-12-07T12:33:36;1.58;;;0.90;;
76292;SDS011;65101;51.140;4.088;2022-12-07T12:46:46;2.75;;;1.20;;
76292;SDS011;65101;51.140;4.088;2022-12-07T12:56:47;3.50;;;1.70;;
76292;SDS011;65101;51.140;4.088;2022-12-07T12:59:23;2.92;;;1.00;;
76292;SDS011;65101;51.140;4.088;2022-12-07T13:01:55;2.13;;;1.25;;
76292;SDS011;65101;51.140;4.088;2022-12-07T13:05:25;2.42;;;1.17;;
76292;SDS011;65101;51.140;4.088;2022-12-07T13:13:01;1.67;;;0.70;;
76292;SDS011;65101;51.140;4.088;2022-12-07T13:15:35;1.95;;;0.90;;
76292;SDS011;65101;51.140;4.088;2022-12-07T13:28:42;2.63;;;1.00;;
76292;SDS011;65101;51.140;4.088;2022-12-07T13:33:46;1.73;;;0.70;;
76292;SDS011;65101;51.140;4.088;2022-12-07T13:36:22;2.88;;;1.02;;
76292;SDS011;65101;51.140;4.088;2022-12-07T13:38:52;2.22;;;0.90;;
76292;SDS011;65101;51.140;4.088;2022-12-07T13:41:18;2.75;;;0.90;;
76292;SDS011;65101;51.140;4.088;2022-12-07T13:46:41;1.77;;;0.98;;
76292;SDS011;65101;51.140;4.088;2022-12-07T13:49:16;1.95;;;0.90;;
76292;SDS011;65101;51.140;4.088;2022-12-07T13:51:47;1.70;;;0.90;;
76292;SDS011;65101;51.140;4.088;2022-12-07T13:54:13;1.77;;;0.98;;
76292;SDS011;65101;51.140;4.088;2022-12-07T13:56:40;3.05;;;0.98;;
76292;SDS011;65101;51.140;4.088;2022-12-07T13:59:14;2.15;;;0.88;;
76292;SDS011;65101;51.140;4.088;2022-12-07T14:01:48;2.45;;;0.90;;
76292;SDS011;65101;51.140;4.088;2022-12-07T14:06:52;3.10;;;0.95;;
76292;SDS011;65101;51.140;4.088;2022-12-07T14:09:20;1.65;;;0.80;;
76292;SDS011;65101;51.140;4.088;2022-12-07T14:11:48;1.88;;;0.93;;
76292;SDS011;65101;51.140;4.088;2022-12-07T14:14:16;2.35;;;1.00;;
76292;SDS011;65101;51.140;4.088;2022-12-07T14:16:54;2.20;;;1.10;;
76292;SDS011;65101;51.140;4.088;2022-12-07T14:25:01;2.47;;;1.27;;
76292;SDS011;65101;51.140;4.088;2022-12-07T14:27:53;2.58;;;0.93;;
76292;SDS011;65101;51.140;4.088;2022-12-07T14:30:21;3.40;;;1.15;;
76292;SDS011;65101;51.140;4.088;2022-12-07T14:32:51;2.83;;;1.02;;
76292;SDS011;65101;51.140;4.088;2022-12-07T14:35:19;4.80;;;1.30;;
76292;SDS011;65101;51.140;4.088;2022-12-07T14:37:46;1.52;;;1.00;;
76292;SDS011;65101;51.140;4.088;2022-12-07T14:40:17;1.70;;;1.00;;
76292;SDS011;65101;51.140;4.088;2022-12-07T14:42:49;2.88;;;1.20;;
76292;SDS011;65101;51.140;4.088;2022-12-07T14:45:22;2.40;;;1.20;;
76292;SDS011;65101;51.140;4.088;2022-12-07T14:47:48;2.22;;;0.82;;
76292;SDS011;65101;51.140;4.088;2022-12-07T14:50:14;2.22;;;0.90;;
76292;SDS011;65101;51.140;4.088;2022-12-07T14:52:46;1.88;;;0.90;;
76292;SDS011;65101;51.140;4.088;2022-12-07T14:55:23;3.38;;;0.80;;
76292;SDS011;65101;51.140;4.088;2022-12-07T14:57:49;3.33;;;0.98;;
76292;SDS011;65101;51.140;4.088;2022-12-07T15:00:15;1.75;;;0.77;;
76292;SDS011;65101;51.140;4.088;2022-12-07T15:02:42;1.13;;;0.65;;
76292;SDS011;65101;51.140;4.088;2022-12-07T15:05:09;2.15;;;1.00;;
76292;SDS011;65101;51.140;4.088;2022-12-07T15:07:34;1.48;;;0.63;;
76292;SDS011;65101;51.140;4.088;2022-12-07T15:10:00;1.67;;;0.70;;
76292;SDS011;65101;51.140;4.088;2022-12-07T15:12:26;1.60;;;0.90;;
76292;SDS011;65101;51.140;4.088;2022-12-07T15:14:52;2.30;;;1.10;;
76292;SDS011;65101;51.140;4.088;2022-12-07T15:17:17;4.07;;;0.93;;
76292;SDS011;65101;51.140;4.088;2022-12-07T15:19:43;1.63;;;1.00;;
76292;SDS011;65101;51.140;4.088;2022-12-07T15:22:08;2.63;;;1.00;;
76292;SDS011;65101;51.140;4.088;2022-12-07T15:24:36;2.22;;;0.98;;
76292;SDS011;65101;51.140;4.088;2022-12-07T15:27:01;1.90;;;1.10;;
76292;SDS011;65101;51.140;4.088;2022-12-07T15:29:27;2.45;;;1.25;;
76292;SDS011;65101;51.140;4.088;2022-12-07T15:31:53;2.90;;;0.77;;
76292;SDS011;65101;51.140;4.088;2022-12-07T15:34:19;1.98;;;0.88;;
76292;SDS011;65101;51.140;4.088;2022-12-07T15:36:44;2.58;;;0.95;;
76292;SDS011;65101;51.140;4.088;2022-12-07T15:39:10;3.88;;;1.17;;
76292;SDS011;65101;51.140;4.088;2022-12-07T15:41:36;1.45;;;0.90;;
76292;SDS011;65101;51.140;4.088;2022-12-07T15:44:02;2.38;;;1.02;;
76292;SDS011;65101;51.140;4.088;2022-12-07T15:46:46;2.00;;;0.93;;
76292;SDS011;65101;51.140;4.088;2022-12-07T15:49:16;2.58;;;1.10;;
76292;SDS011;65101;51.140;4.088;2022-12-07T15:51:44;1.75;;;1.17;;
76292;SDS011;65101;51.140;4.088;2022-12-07T15:54:21;3.55;;;1.20;;
76292;SDS011;65101;51.140;4.088;2022-12-07T15:56:51;2.70;;;1.35;;
76292;SDS011;65101;51.140;4.088;2022-12-07T15:59:17;2.88;;;1.05;;
76292;SDS011;65101;51.140;4.088;2022-12-07T16:01:42;4.53;;;1.20;;
76292;SDS011;65101;51.140;4.088;2022-12-07T16:04:08;1.75;;;0.90;;
76292;SDS011;65101;51.140;4.088;2022-12-07T16:06:34;2.08;;;1.30;;
76292;SDS011;65101;51.140;4.088;2022-12-07T16:09:00;3.83;;;1.08;;
76292;SDS011;65101;51.140;4.088;2022-12-07T16:11:26;1.75;;;1.00;;
76292;SDS011;65101;51.140;4.088;2022-12-07T16:13:51;2.25;;;0.90;;
76292;SDS011;65101;51.140;4.088;2022-12-07T16:16:18;3.42;;;1.00;;
76292;SDS011;65101;51.140;4.088;2022-12-07T16:18:45;2.70;;;1.40;;
76292;SDS011;65101;51.140;4.088;2022-12-07T16:21:11;4.13;;;1.30;;
76292;SDS011;65101;51.140;4.088;2022-12-07T16:23:38;3.72;;;1.48;;
76292;SDS011;65101;51.140;4.088;2022-12-07T16:26:04;2.15;;;1.00;;
76292;SDS011;65101;51.140;4.088;2022-12-07T16:28:35;1.85;;;1.10;;
76292;SDS011;65101;51.140;4.088;2022-12-07T16:31:05;2.25;;;1.20;;
76292;SDS011;65101;51.140;4.088;2022-12-07T16:33:34;4.53;;;1.10;;
76292;SDS011;65101;51.140;4.088;2022-12-07T16:36:02;2.83;;;1.40;;
76292;SDS011;65101;51.140;4.088;2022-12-07T16:38:29;1.35;;;0.93;;
76292;SDS011;65101;51.140;4.088;2022-12-07T16:40:55;4.07;;;1.45;;
76292;SDS011;65101;51.140;4.088;2022-12-07T16:43:20;1.25;;;0.95;;
76292;SDS011;65101;51.140;4.088;2022-12-07T16:45:46;1.55;;;1.00;;
76292;SDS011;65101;51.140;4.088;2022-12-07T16:48:13;1.70;;;0.98;;
76292;SDS011;65101;51.140;4.088;2022-12-07T16:50:40;3.08;;;1.20;;
76292;SDS011;65101;51.140;4.088;2022-12-07T16:53:07;2.30;;;0.98;;
76292;SDS011;65101;51.140;4.088;2022-12-07T16:55:40;2.28;;;1.27;;
76292;SDS011;65101;51.140;4.088;2022-12-07T16:58:07;2.03;;;1.50;;
76292;SDS011;65101;51.140;4.088;2022-12-07T17:00:33;1.92;;;1.35;;
76292;SDS011;65101;51.140;4.088;2022-12-07T17:02:59;3.60;;;2.22;;
76292;SDS011;65101;51.140;4.088;2022-12-07T17:05:25;5.70;;;2.55;;
76292;SDS011;65101;51.140;4.088;2022-12-07T17:07:53;2.47;;;1.52;;
76292;SDS011;65101;51.140;4.088;2022-12-07T17:10:19;3.35;;;1.40;;
76292;SDS011;65101;51.140;4.088;2022-12-07T17:12:45;2.55;;;1.40;;
76292;SDS011;65101;51.140;4.088;2022-12-07T17:15:10;2.08;;;1.50;;
76292;SDS011;65101;51.140;4.088;2022-12-07T17:17:43;2.40;;;1.38;;
76292;SDS011;65101;51.140;4.088;2022-12-07T17:20:09;2.90;;;1.92;;
76292;SDS011;65101;51.140;4.088;2022-12-07T17:22:35;2.42;;;1.20;;
76292;SDS011;65101;51.140;4.088;2022-12-07T17:25:01;3.42;;;1.70;;
76292;SDS011;65101;51.140;4.088;2022-12-07T17:27:27;2.58;;;1.35;;